Terminal Aerodrome Forecast
Issued by NWS

Home | Current Version | Previous Version | Text Only | Print | Product List | Glossary On
Versions: 1 2 3 4 5 6 7 8 9 10 11 12 13 14 15 16 17 18 19 20 21 22 23 24
000
FTUS42 KJAX 242300 RRA
TAFVQQ
TAF
KVQQ 242351Z 2500/2524 VRB03KT P6SM SCT060
     FM250900 00000KT 4SM BR SCT005
     FM251300 24004KT P6SM SCT250
     FM251500 25009KT P6SM SCT080 SCT250=

USA.gov is the U.S. government's official web portal to all federal, state and local government web resources and services.